Moffit, ND (58560)

7:27 AM CDT on August 04, 2015 (GMT -0500)
Country Meadows | | Change Station
CLOSE
Current Station
Personal Weather Station
Location: Menoken, ND
Elevation: 1686 ft
Nearby Weather Stations

Elev 1686 ft 46.81 °N, 100.60 °W | Updated 12 minutes ago

Clear
Clear
50.9 °F
Feels Like 50.9 °F
N
3.7
Wind Variable Wind from NNE

Today
High -- | Low -- °F
--% Chance of Precip.
Yesterday
High -- | Low -- °F
Precip. -- in
6:24 AM 9:08 PM
Waning Gibbous, 78% visible
Pressure 30.01 in
Visibility 10.0 miles
Clouds Clear
Dew Point 51 °F
Humidity 99%
Rainfall 0.00 in
Snow Depth Not available.
UV 0 out of 12
Pollen 8.10 out of 12
Air Quality Not available.
Flu Activity Not available.
METAR KBIS 041152Z 07003KT 10SM CLR 11/09 A3001 RMK AO2 SLP160 T01110094 10144 20094 53010

More Conditions Fewer Conditions

Pressure 30.01 in
Visibility 10.0 miles
Clouds Clear
Dew Point 51 °F
Humidity 99%
Rainfall 0.00 in
Snow Depth Not available.
UV 0 out of 12
Pollen 8.10 out of 12
Air Quality Not available.
Flu Activity Not available.
METAR KBIS 041152Z 07003KT 10SM CLR 11/09 A3001 RMK AO2 SLP160 T01110094 10144 20094 53010

More Conditions Fewer Conditions

10-Day Weather Forecast

×

Almanac

Astronomy

Aug. 04, 2015 Rise Set
Actual Time
Civil Twilight
Nautical Twilight
Astronomical Twilight
Moon
Length of Visible Light
Length of Day
Tomorrow will be .
, % of the Moon is Illuminated

Today's Extremes

State Highs State Lows

Community

WunderPhotos

Upload Photos

1,843,910 photos uploaded!

WunderBlogs® & News

Nearby

Air Quality

  Air Quality AQ Index Pollutant
Not available.

Snow Depth

Station Depth Elevation

Earthquake Activity

City Distance Mag. Time & Date
Minimum magnitude displayed is 2.5.

Coastal Water Temperatures

Place Temperature

Stations

Nearby Weather Stations

Station Location Temp. Windchill Dew Point Humidity Wind Precip. Elev Updated Type